Time;durP1;ratioP1;P1;durP2;ratioP2;P2;SDS_P1;SDS_P2;PMS_P1;PMS_P2;Temp;Humidity;BMP_temperature;BMP_pressure;BME280_temperature;BME280_humidity;BME280_pressure;Samples;Min_cycle;Max_cycle;Signal;HPM_P1;HPM_P2
2023/12/17 00:00:57;;;;;;;1128.27;999.90;;;8.70;99.90;;;;;;5010711;28;20285;-75
2023/12/17 00:03:22;;;;;;;1999.90;999.90;;;8.80;99.90;;;;;;5015158;28;20804;-75
2023/12/17 00:05:48;;;;;;;1287.10;992.93;;;8.70;99.90;;;;;;5010308;28;21037;-75
2023/12/17 00:08:19;;;;;;;1478.67;999.90;;;8.80;99.90;;;;;;4988095;28;20048;-74
2023/12/17 00:10:51;;;;;;;1253.83;999.90;;;8.80;99.90;;;;;;4991938;28;20664;-75
2023/12/17 00:13:18;;;;;;;1142.33;983.07;;;8.80;99.90;;;;;;4991017;28;20804;-74
2023/12/17 00:15:44;;;;;;;1118.33;998.53;;;8.70;99.90;;;;;;5010269;28;20308;-75
2023/12/17 00:18:11;;;;;;;1047.87;949.23;;;8.70;99.90;;;;;;4993460;28;20327;-76
2023/12/17 00:20:38;;;;;;;1065.17;959.43;;;8.70;99.90;;;;;;5010235;28;20396;-75
2023/12/17 00:23:04;;;;;;;1597.70;999.90;;;8.70;99.90;;;;;;5019161;28;20640;-76
2023/12/17 00:25:31;;;;;;;1174.13;999.90;;;8.70;99.90;;;;;;4987455;28;20319;-75
2023/12/17 00:27:57;;;;;;;1400.43;999.90;;;8.80;99.90;;;;;;5015249;28;20276;-76
2023/12/17 00:30:22;;;;;;;1061.27;962.80;;;8.80;99.90;;;;;;5009836;28;20292;-75
2023/12/17 00:32:48;;;;;;;1251.60;999.90;;;8.80;99.90;;;;;;4994075;28;20075;-75
2023/12/17 00:35:14;;;;;;;1041.13;943.53;;;8.80;99.90;;;;;;4993696;28;20045;-76
2023/12/17 00:37:40;;;;;;;1098.77;955.63;;;8.90;99.90;;;;;;5010803;28;20316;-75
2023/12/17 00:40:06;;;;;;;1085.23;970.73;;;8.90;99.90;;;;;;5010250;28;20121;-74
2023/12/17 00:42:32;;;;;;;1056.07;957.53;;;8.90;99.90;;;;;;5011531;28;20145;-74
2023/12/17 00:44:58;;;;;;;1273.07;998.47;;;8.90;99.90;;;;;;5013668;28;20308;-75
2023/12/17 00:47:24;;;;;;;1152.97;966.17;;;8.90;99.90;;;;;;4991998;28;20073;-75
2023/12/17 00:49:50;;;;;;;1021.83;937.27;;;8.80;99.90;;;;;;5010282;28;20049;-74
2023/12/17 00:52:16;;;;;;;1371.77;999.90;;;8.80;99.90;;;;;;4993537;28;20037;-74
2023/12/17 00:54:41;;;;;;;1037.57;947.87;;;8.80;99.90;;;;;;5009044;28;20382;-74
2023/12/17 00:57:07;;;;;;;1019.33;932.80;;;8.80;99.90;;;;;;5009622;28;20489;-74
2023/12/17 00:59:33;;;;;;;1415.07;974.90;;;8.80;99.90;;;;;;5009868;28;20049;-75
2023/12/17 01:01:58;;;;;;;996.90;913.77;;;8.80;99.90;;;;;;5009996;28;20504;-74
2023/12/17 01:04:24;;;;;;;992.07;909.57;;;8.90;99.90;;;;;;5009689;28;20116;-75
2023/12/17 01:06:49;;;;;;;1000.73;912.83;;;8.90;99.90;;;;;;4993649;28;20098;-75
2023/12/17 01:09:15;;;;;;;1099.53;975.63;;;8.90;99.90;;;;;;4993337;28;20037;-75
2023/12/17 01:11:42;;;;;;;1097.37;977.87;;;8.90;99.90;;;;;;5009843;28;20517;-75
2023/12/17 01:14:08;;;;;;;1059.47;946.20;;;8.80;99.90;;;;;;4992887;28;20124;-74
2023/12/17 01:16:34;;;;;;;1118.90;996.53;;;8.80;99.90;;;;;;5009360;28;20284;-74
2023/12/17 01:18:59;;;;;;;1030.60;933.43;;;8.80;99.90;;;;;;4992584;28;20277;-74
2023/12/17 01:21:25;;;;;;;1153.40;999.90;;;8.80;99.90;;;;;;4993815;28;20065;-74
2023/12/17 01:23:52;;;;;;;1075.73;967.30;;;8.80;99.90;;;;;;5009823;28;20046;-75
2023/12/17 01:26:19;;;;;;;977.33;903.23;;;8.80;99.90;;;;;;5009730;28;20045;-74
2023/12/17 01:28:45;;;;;;;968.80;882.90;;;8.80;99.90;;;;;;4992730;28;20370;-74
2023/12/17 01:31:10;;;;;;;1007.53;915.07;;;8.80;99.90;;;;;;4993020;28;20320;-74
2023/12/17 01:33:36;;;;;;;991.57;910.70;;;8.80;99.90;;;;;;5013240;28;20064;-74
2023/12/17 01:36:02;;;;;;;1009.00;924.57;;;8.80;99.90;;;;;;5017665;28;20041;-74
2023/12/17 01:38:27;;;;;;;992.10;909.93;;;8.80;99.90;;;;;;5012368;28;20501;-74
2023/12/17 01:40:53;;;;;;;976.53;902.20;;;8.70;99.90;;;;;;5012734;28;20485;-74
2023/12/17 01:43:19;;;;;;;1014.87;921.10;;;8.70;99.90;;;;;;4996913;28;20044;-75
2023/12/17 01:45:44;;;;;;;1048.50;917.00;;;8.60;99.90;;;;;;5016054;28;20559;-75
2023/12/17 01:48:11;;;;;;;1324.57;992.87;;;8.50;99.90;;;;;;4992395;28;20097;-75
2023/12/17 01:50:37;;;;;;;1080.17;978.77;;;8.50;99.90;;;;;;4996146;28;20042;-75
2023/12/17 01:53:03;;;;;;;1207.17;997.53;;;8.50;99.90;;;;;;5012719;28;20299;-75
2023/12/17 01:55:29;;;;;;;1048.33;964.20;;;8.50;99.90;;;;;;5012428;28;20330;-74
2023/12/17 01:57:56;;;;;;;1075.83;978.07;;;8.40;99.90;;;;;;5011460;28;20297;-75
2023/12/17 02:00:22;;;;;;;1044.93;954.70;;;8.40;99.90;;;;;;5004576;28;20081;-75
2023/12/17 02:02:48;;;;;;;978.93;902.70;;;8.40;99.90;;;;;;4989922;28;20327;-75
2023/12/17 02:05:14;;;;;;;983.33;897.50;;;8.40;99.90;;;;;;4996786;28;20379;-75
2023/12/17 02:07:41;;;;;;;981.83;901.37;;;8.40;99.90;;;;;;4996669;28;20697;-75
2023/12/17 02:10:07;;;;;;;1206.97;985.17;;;8.40;99.90;;;;;;4996356;28;20299;-75
2023/12/17 02:12:32;;;;;;;1028.83;936.50;;;8.40;99.90;;;;;;4989661;28;20816;-75
2023/12/17 02:14:58;;;;;;;1029.50;937.30;;;8.40;99.90;;;;;;4995629;28;20313;-75
2023/12/17 02:17:31;;;;;;;1205.47;991.07;;;8.40;99.90;;;;;;5011951;28;20714;-76
2023/12/17 02:19:57;;;;;;;1017.80;915.43;;;8.40;99.90;;;;;;5012633;28;20045;-75
2023/12/17 02:22:24;;;;;;;1055.17;945.27;;;8.40;99.90;;;;;;5005856;28;20284;-75
2023/12/17 02:24:51;;;;;;;1158.17;991.43;;;8.50;99.90;;;;;;5011518;28;20285;-76
2023/12/17 02:27:21;;;;;;;1087.13;977.90;;;8.50;99.90;;;;;;4995574;28;20372;-75
2023/12/17 02:29:48;;;;;;;1115.80;995.83;;;8.50;99.90;;;;;;5012380;28;20288;-75
2023/12/17 02:32:14;;;;;;;1223.27;998.63;;;8.50;99.90;;;;;;5010996;28;20630;-76
2023/12/17 02:34:40;;;;;;;1080.78;980.03;;;8.50;99.90;;;;;;4995764;28;20305;-75
2023/12/17 02:37:06;;;;;;;1037.03;948.60;;;8.50;99.90;;;;;;4995629;28;20414;-76
2023/12/17 02:39:31;;;;;;;1202.07;999.90;;;8.50;99.90;;;;;;5011641;28;20284;-75
2023/12/17 02:41:58;;;;;;;1120.67;999.13;;;8.50;99.90;;;;;;5007906;28;20449;-75
2023/12/17 02:44:24;;;;;;;1052.90;956.85;;;8.60;99.90;;;;;;4994923;28;20486;-75
2023/12/17 02:46:50;;;;;;;1216.28;995.80;;;8.60;99.90;;;;;;5010400;28;20104;-75
2023/12/17 02:49:16;;;;;;;1024.13;941.17;;;8.60;99.90;;;;;;4991488;28;20042;-75
2023/12/17 02:51:42;;;;;;;1056.43;958.50;;;8.60;99.90;;;;;;5010031;28;20676;-75
2023/12/17 02:54:08;;;;;;;1036.37;946.33;;;8.60;99.90;;;;;;5012054;28;20042;-75
2023/12/17 02:56:41;;;;;;;1051.63;953.60;;;8.60;99.90;;;;;;4995578;28;20037;-75
2023/12/17 02:59:11;;;;;;;1039.90;950.53;;;8.60;99.90;;;;;;5011795;28;20112;-75
2023/12/17 03:01:36;;;;;;;1019.17;935.70;;;8.60;99.90;;;;;;5010794;28;20346;-74
2023/12/17 03:04:03;;;;;;;1048.87;956.80;;;8.60;99.90;;;;;;4995817;28;20284;-75
2023/12/17 03:06:29;;;;;;;1022.53;934.20;;;8.60;99.90;;;;;;5011559;28;20083;-75
2023/12/17 03:08:55;;;;;;;1053.70;963.47;;;8.50;99.90;;;;;;4993535;28;20289;-75
2023/12/17 03:11:21;;;;;;;1042.17;956.10;;;8.50;99.90;;;;;;5008764;28;20069;-74
2023/12/17 03:13:47;;;;;;;991.37;906.97;;;8.50;99.90;;;;;;5010674;28;20327;-75
2023/12/17 03:16:12;;;;;;;1078.53;976.13;;;8.40;99.90;;;;;;4995089;28;20517;-75
2023/12/17 03:18:38;;;;;;;1054.77;955.50;;;8.40;99.90;;;;;;4995513;28;20046;-75
2023/12/17 03:21:06;;;;;;;1044.70;951.07;;;8.40;99.90;;;;;;5010896;28;20091;-75
2023/12/17 03:23:32;;;;;;;999.83;918.63;;;8.30;99.90;;;;;;5011371;28;20706;-75
2023/12/17 03:25:57;;;;;;;1025.87;940.47;;;8.30;99.90;;;;;;4993265;28;20296;-75
2023/12/17 03:28:23;;;;;;;1004.03;924.27;;;8.30;99.90;;;;;;4994909;28;20285;-75
2023/12/17 03:30:49;;;;;;;1047.33;957.33;;;8.30;99.90;;;;;;4994672;28;20046;-75
2023/12/17 03:33:14;;;;;;;1053.17;956.13;;;8.30;99.90;;;;;;4994837;28;20057;-74
2023/12/17 03:35:40;;;;;;;966.07;888.07;;;8.30;99.90;;;;;;5009730;28;20053;-75
2023/12/17 03:38:06;;;;;;;985.13;902.23;;;8.30;99.90;;;;;;5011163;28;20042;-74
2023/12/17 03:40:32;;;;;;;951.87;881.97;;;8.30;99.90;;;;;;5010115;28;20124;-75
2023/12/17 03:42:58;;;;;;;979.10;900.77;;;8.30;99.90;;;;;;4994419;28;20172;-75
2023/12/17 03:45:24;;;;;;;946.63;874.20;;;8.30;99.90;;;;;;5013681;28;20898;-75
2023/12/17 03:47:50;;;;;;;962.87;890.23;;;8.20;99.90;;;;;;5008848;28;20033;-74
2023/12/17 03:50:17;;;;;;;988.77;910.07;;;8.20;99.90;;;;;;5009812;28;20180;-75
2023/12/17 03:52:47;;;;;;;1019.03;932.90;;;8.20;99.90;;;;;;4993910;28;20125;-74
2023/12/17 03:55:14;;;;;;;1079.87;968.37;;;8.20;99.90;;;;;;5010036;28;20312;-75
2023/12/17 03:57:40;;;;;;;998.33;915.92;;;8.20;99.90;;;;;;5010384;28;20840;-75
2023/12/17 04:00:07;;;;;;;1044.37;955.63;;;8.20;99.90;;;;;;4993330;28;20204;-75
2023/12/17 04:02:33;;;;;;;1013.97;929.05;;;8.10;99.90;;;;;;5010323;28;20273;-75
2023/12/17 04:04:59;;;;;;;985.20;907.20;;;8.10;99.90;;;;;;5010979;28;20053;-75
2023/12/17 04:07:29;;;;;;;949.27;878.57;;;8.10;99.90;;;;;;5010362;28;20125;-75
2023/12/17 04:09:56;;;;;;;955.10;883.07;;;8.10;99.90;;;;;;4979594;28;20637;-75
2023/12/17 04:12:22;;;;;;;951.90;882.38;;;8.10;99.90;;;;;;5008395;28;20300;-74
2023/12/17 04:14:47;;;;;;;961.97;890.07;;;8.10;99.90;;;;;;5010537;28;20493;-75
2023/12/17 04:17:13;;;;;;;974.20;900.40;;;8.00;99.90;;;;;;4993566;28;20121;-74
2023/12/17 04:19:39;;;;;;;945.47;875.37;;;8.00;99.90;;;;;;5010439;28;20038;-74
2023/12/17 04:22:04;;;;;;;960.03;887.73;;;7.90;99.90;;;;;;5010010;28;20034;-74
2023/12/17 04:24:30;;;;;;;947.50;873.33;;;7.90;99.90;;;;;;5010216;28;20041;-74
2023/12/17 04:26:56;;;;;;;1029.07;939.07;;;7.80;99.90;;;;;;5009742;28;20034;-75
2023/12/17 04:29:21;;;;;;;991.30;907.20;;;7.80;99.90;;;;;;4985428;28;20050;-75
2023/12/17 04:31:47;;;;;;;982.90;900.47;;;7.90;99.90;;;;;;5009719;28;20045;-75
2023/12/17 04:34:13;;;;;;;1003.40;920.27;;;7.90;99.90;;;;;;5010172;28;20053;-75
2023/12/17 04:36:40;;;;;;;1019.63;924.40;;;7.90;99.90;;;;;;5010451;28;20053;-75
2023/12/17 04:39:06;;;;;;;960.58;878.50;;;7.90;99.90;;;;;;5012848;28;20045;-74
2023/12/17 04:41:33;;;;;;;1008.03;920.70;;;7.90;99.90;;;;;;4995960;28;20045;-75
2023/12/17 04:43:59;;;;;;;999.05;918.78;;;7.90;99.90;;;;;;4980834;28;20758;-74
2023/12/17 04:46:28;;;;;;;940.65;868.88;;;7.90;99.90;;;;;;5005500;28;20124;-74
2023/12/17 04:48:54;;;;;;;928.40;860.47;;;7.90;99.90;;;;;;5010172;28;20116;-75
2023/12/17 04:51:21;;;;;;;972.55;897.65;;;7.90;99.90;;;;;;5010007;28;20038;-74
2023/12/17 04:53:47;;;;;;;933.13;861.72;;;8.00;99.90;;;;;;4993579;28;20042;-75
2023/12/17 04:56:13;;;;;;;998.43;898.53;;;8.00;99.90;;;;;;4993892;28;20041;-75
2023/12/17 04:58:38;;;;;;;1050.00;952.97;;;8.00;99.90;;;;;;5010168;28;20042;-75
2023/12/17 05:01:04;;;;;;;1001.00;914.67;;;8.00;99.90;;;;;;4993711;28;20506;-75
2023/12/17 05:03:31;;;;;;;962.97;884.70;;;8.00;99.90;;;;;;5009859;28;20133;-75
2023/12/17 05:05:57;;;;;;;919.67;853.88;;;8.00;99.90;;;;;;5010808;28;20073;-74
2023/12/17 05:08:22;;;;;;;937.63;866.80;;;8.00;99.90;;;;;;4998085;28;20038;-75
2023/12/17 05:10:48;;;;;;;939.70;867.13;;;8.00;99.90;;;;;;5013447;28;20092;-75
2023/12/17 05:13:14;;;;;;;979.83;899.13;;;8.00;99.90;;;;;;4996957;28;20121;-75
2023/12/17 05:15:40;;;;;;;896.38;832.50;;;8.00;99.90;;;;;;5012485;28;20038;-75
2023/12/17 05:18:06;;;;;;;936.90;869.10;;;8.10;99.90;;;;;;5013773;28;20049;-75
2023/12/17 05:20:32;;;;;;;1021.90;924.00;;;8.10;99.90;;;;;;4997412;28;20046;-75
2023/12/17 05:22:57;;;;;;;1373.33;995.83;;;8.10;99.90;;;;;;4997146;28;20536;-75
2023/12/17 05:25:23;;;;;;;1046.13;943.17;;;8.20;99.90;;;;;;5013316;28;20038;-75
2023/12/17 05:27:49;;;;;;;1538.43;999.90;;;8.20;99.90;;;;;;4996317;28;20482;-75
2023/12/17 05:30:14;;;;;;;948.53;875.63;;;8.20;99.90;;;;;;5015811;28;20037;-75
2023/12/17 05:32:40;;;;;;;947.00;878.07;;;8.20;99.90;;;;;;5013542;28;20461;-74
2023/12/17 05:35:06;;;;;;;979.50;900.17;;;8.20;99.90;;;;;;5012652;28;20045;-75
2023/12/17 05:37:32;;;;;;;988.08;911.05;;;8.20;99.90;;;;;;5012880;28;20046;-75
2023/12/17 05:39:59;;;;;;;1194.80;972.53;;;8.20;99.90;;;;;;5011102;28;20088;-75
2023/12/17 05:42:25;;;;;;;1053.07;960.33;;;8.20;99.90;;;;;;4984685;28;20285;-75
2023/12/17 05:44:50;;;;;;;995.73;915.57;;;8.30;99.90;;;;;;5010839;28;20050;-75
2023/12/17 05:47:17;;;;;;;1071.20;966.10;;;8.30;99.90;;;;;;5012529;28;20037;-75
2023/12/17 05:49:42;;;;;;;1014.17;911.85;;;8.30;99.90;;;;;;5009996;28;20041;-75
2023/12/17 05:52:08;;;;;;;909.20;840.67;;;8.30;99.90;;;;;;5019404;28;20039;-75
2023/12/17 05:54:34;;;;;;;860.07;801.07;;;8.30;99.90;;;;;;4997306;28;20126;-75
2023/12/17 05:57:00;;;;;;;920.13;848.43;;;8.30;99.90;;;;;;4995957;28;20421;-75
2023/12/17 05:59:27;;;;;;;1020.80;923.33;;;8.30;99.90;;;;;;5012292;28;20371;-75
2023/12/17 06:01:53;;;;;;;1002.60;918.92;;;8.30;99.90;;;;;;5012329;28;20692;-75
2023/12/17 06:04:19;;;;;;;995.13;916.60;;;8.30;99.90;;;;;;5012602;28;20033;-75
2023/12/17 06:06:46;;;;;;;1043.40;937.03;;;8.30;99.90;;;;;;5012833;28;20125;-74
2023/12/17 06:09:12;;;;;;;1000.33;919.72;;;8.30;99.90;;;;;;5012479;28;20042;-75
2023/12/17 06:11:38;;;;;;;997.00;904.83;;;8.30;99.90;;;;;;4995843;28;20061;-75
2023/12/17 06:14:04;;;;;;;1014.13;933.23;;;8.30;99.90;;;;;;5011084;28;20083;-74
2023/12/17 06:16:30;;;;;;;1006.70;923.30;;;8.30;99.90;;;;;;4996748;28;20680;-75
2023/12/17 06:18:56;;;;;;;1052.40;950.43;;;8.30;99.90;;;;;;4995117;28;20034;-75
2023/12/17 06:21:26;;;;;;;1046.77;947.03;;;8.30;99.90;;;;;;5012407;28;20257;-75
2023/12/17 06:23:57;;;;;;;1054.60;960.33;;;8.30;99.90;;;;;;4995674;28;20049;-76
2023/12/17 06:26:24;;;;;;;1033.63;943.75;;;8.30;99.90;;;;;;5012245;28;20289;-75
2023/12/17 06:28:50;;;;;;;1194.63;999.90;;;8.30;99.90;;;;;;5012625;28;20053;-75
2023/12/17 06:31:16;;;;;;;1050.80;958.20;;;8.30;99.90;;;;;;5011398;28;20392;-74
2023/12/17 06:33:41;;;;;;;1401.77;999.90;;;8.40;99.90;;;;;;5011074;28;20058;-76
2023/12/17 06:36:08;;;;;;;1188.40;978.13;;;8.30;99.90;;;;;;5012894;28;20638;-75
2023/12/17 06:38:33;;;;;;;1054.10;960.60;;;8.40;99.90;;;;;;5011658;28;20180;-75
2023/12/17 06:40:59;;;;;;;1024.37;935.13;;;8.30;99.90;;;;;;4995057;28;20515;-75
2023/12/17 06:43:25;;;;;;;1033.13;924.90;;;8.40;99.90;;;;;;4994767;28;20030;-75
2023/12/17 06:45:50;;;;;;;989.13;909.47;;;8.40;99.90;;;;;;5012235;28;20077;-75
2023/12/17 06:48:16;;;;;;;1009.10;926.77;;;8.30;99.90;;;;;;5006959;28;20042;-75
2023/12/17 06:50:42;;;;;;;1025.03;939.93;;;8.30;99.90;;;;;;5011153;28;20052;-75
2023/12/17 06:53:07;;;;;;;1049.27;957.97;;;8.30;99.90;;;;;;4994857;28;20045;-75
2023/12/17 06:55:33;;;;;;;1099.30;938.70;;;8.30;99.90;;;;;;5012205;28;20048;-75
2023/12/17 06:57:59;;;;;;;982.73;902.73;;;8.30;99.90;;;;;;5011908;28;20041;-75
2023/12/17 07:00:25;;;;;;;1377.20;999.90;;;8.40;99.90;;;;;;4998646;28;20494;-75
2023/12/17 07:02:51;;;;;;;1264.03;999.90;;;8.40;99.90;;;;;;5009836;28;20042;-75
2023/12/17 07:05:16;;;;;;;1100.45;958.78;;;8.40;99.90;;;;;;4994881;28;20077;-75
2023/12/17 07:07:43;;;;;;;1119.87;992.63;;;8.40;99.90;;;;;;5011525;28;20077;-75
2023/12/17 07:10:11;;;;;;;1234.10;999.90;;;8.40;99.90;;;;;;4994893;28;20482;-75
2023/12/17 07:12:37;;;;;;;1099.37;991.87;;;8.40;99.90;;;;;;5009960;28;20297;-76
2023/12/17 07:15:03;;;;;;;1025.50;930.93;;;8.40;99.90;;;;;;5006182;28;20309;-75
2023/12/17 07:17:30;;;;;;;1036.45;942.38;;;8.40;99.90;;;;;;5001905;28;20042;-75
2023/12/17 07:19:55;;;;;;;1033.72;944.60;;;8.40;99.90;;;;;;4994315;28;20461;-76
2023/12/17 07:22:22;;;;;;;1378.40;998.90;;;8.40;99.90;;;;;;5009986;28;20130;-75
2023/12/17 07:24:49;;;;;;;1377.80;992.53;;;8.40;99.90;;;;;;4992842;28;20037;-75
2023/12/17 07:27:15;;;;;;;1061.03;955.28;;;8.40;99.90;;;;;;5009937;28;20053;-75
2023/12/17 07:29:41;;;;;;;1489.03;977.83;;;8.40;99.90;;;;;;4993838;28;20046;-75
2023/12/17 07:32:06;;;;;;;1074.73;966.17;;;8.40;99.90;;;;;;5009750;28;20046;-75
2023/12/17 07:34:32;;;;;;;1046.43;945.17;;;8.40;99.90;;;;;;4991896;28;20170;-74
2023/12/17 07:37:00;;;;;;;1248.43;999.07;;;8.40;99.90;;;;;;5005260;28;20034;-75
2023/12/17 07:39:26;;;;;;;1050.88;950.85;;;8.40;99.90;;;;;;5008989;28;20042;-74
2023/12/17 07:41:51;;;;;;;1086.53;975.70;;;8.30;99.90;;;;;;5001634;28;20084;-75
2023/12/17 07:44:17;;;;;;;995.10;910.37;;;8.30;99.90;;;;;;5006104;28;20073;-75
2023/12/17 07:46:43;;;;;;;997.47;918.87;;;8.30;99.90;;;;;;5006443;28;20117;-74
2023/12/17 07:49:09;;;;;;;1336.63;997.87;;;8.30;99.90;;;;;;5008257;28;20054;-75
2023/12/17 07:51:35;;;;;;;1083.87;978.93;;;8.30;99.90;;;;;;5009264;28;20038;-74
2023/12/17 07:54:01;;;;;;;1104.38;988.03;;;8.30;99.90;;;;;;4993807;28;20030;-74
2023/12/17 07:56:27;;;;;;;1244.53;999.90;;;8.20;99.90;;;;;;4982999;28;20045;-74
2023/12/17 07:58:53;;;;;;;1177.23;982.07;;;8.20;99.90;;;;;;5009770;28;20097;-74
2023/12/17 08:01:28;;;;;;;1035.10;947.93;;;8.20;99.90;;;;;;5004173;28;20359;-74
2023/12/17 08:03:53;;;;;;;1495.47;999.90;;;8.20;99.90;;;;;;5006221;28;20045;-74
2023/12/17 08:06:19;;;;;;;1051.70;953.70;;;8.20;99.90;;;;;;5006038;28;20038;-75
2023/12/17 08:08:45;;;;;;;1087.23;947.13;;;8.20;99.90;;;;;;5003317;28;20041;-75
2023/12/17 08:11:14;;;;;;;1117.03;975.17;;;8.20;99.90;;;;;;5000211;28;20046;-75
2023/12/17 08:13:40;;;;;;;1117.20;985.10;;;8.20;99.90;;;;;;5005928;28;20072;-75
2023/12/17 08:16:06;;;;;;;1003.80;922.23;;;8.20;99.90;;;;;;4990611;28;20451;-75
2023/12/17 08:18:32;;;;;;;1098.00;987.17;;;8.20;99.90;;;;;;5005197;28;20133;-75
2023/12/17 08:20:58;;;;;;;1012.10;915.93;;;8.20;99.90;;;;;;4983439;28;20122;-75
2023/12/17 08:23:25;;;;;;;1055.50;959.37;;;8.10;99.90;;;;;;5009174;28;20045;-75
2023/12/17 08:25:51;;;;;;;1098.63;991.58;;;8.10;99.90;;;;;;5022832;28;20053;-75
2023/12/17 08:28:19;;;;;;;1080.28;969.40;;;8.20;99.90;;;;;;5009993;28;20077;-75
2023/12/17 08:30:45;;;;;;;1418.22;996.85;;;8.10;99.90;;;;;;4992788;28;20038;-74
2023/12/17 08:33:11;;;;;;;1647.43;999.90;;;8.10;99.90;;;;;;4993032;28;20505;-75
2023/12/17 08:35:37;;;;;;;1029.83;940.20;;;8.20;99.90;;;;;;4987058;28;20058;-75
2023/12/17 08:38:05;;;;;;;1365.30;999.90;;;8.20;99.90;;;;;;4990592;28;20556;-75
2023/12/17 08:40:39;;;;;;;1372.95;999.90;;;8.20;99.90;;;;;;5011550;28;20053;-75
2023/12/17 08:43:07;;;;;;;1256.15;961.72;;;8.20;99.90;;;;;;5000128;28;20084;-74
2023/12/17 08:45:34;;;;;;;1664.85;999.90;;;8.20;99.90;;;;;;5000508;28;20103;-75
2023/12/17 08:48:00;;;;;;;1498.32;999.90;;;8.20;99.90;;;;;;5012686;28;20045;-75
2023/12/17 08:50:26;;;;;;;1046.15;952.13;;;8.20;99.90;;;;;;4995765;28;20536;-75
2023/12/17 08:52:52;;;;;;;1074.93;960.30;;;8.20;99.90;;;;;;5013554;28;20041;-75
2023/12/17 08:55:19;;;;;;;1019.63;921.63;;;8.30;99.90;;;;;;4999636;28;20045;-75
2023/12/17 08:57:46;;;;;;;997.40;911.83;;;8.30;99.90;;;;;;5015380;28;20037;-75
2023/12/17 09:00:12;;;;;;;1023.35;938.10;;;8.30;99.90;;;;;;4999519;28;20045;-74
2023/12/17 09:02:38;;;;;;;1126.45;975.00;;;8.40;99.90;;;;;;4998811;28;20794;-75
2023/12/17 09:05:05;;;;;;;1295.78;972.33;;;8.40;99.90;;;;;;4999586;28;20038;-75
2023/12/17 09:07:31;;;;;;;998.13;916.28;;;8.40;99.90;;;;;;5015132;28;20084;-75
2023/12/17 09:09:56;;;;;;;1034.40;931.03;;;8.40;99.90;;;;;;5015938;28;20386;-75
2023/12/17 09:12:22;;;;;;;1999.90;999.90;;;8.40;99.90;;;;;;5015334;28;20107;-75
2023/12/17 09:14:48;;;;;;;1182.60;965.93;;;8.50;99.90;;;;;;5014878;28;20122;-75
2023/12/17 09:17:14;;;;;;;978.20;900.77;;;8.50;99.90;;;;;;4999410;28;20038;-75
2023/12/17 09:19:40;;;;;;;1054.60;958.87;;;8.50;99.90;;;;;;5015944;28;20049;-75
2023/12/17 09:22:05;;;;;;;1044.13;943.60;;;8.50;99.90;;;;;;4998936;28;20117;-75
2023/12/17 09:24:31;;;;;;;1180.40;999.77;;;8.50;99.90;;;;;;5015101;28;20991;-75
2023/12/17 09:26:57;;;;;;;994.63;914.27;;;8.50;99.90;;;;;;5012704;28;20088;-76
2023/12/17 09:29:23;;;;;;;1303.67;999.90;;;8.50;99.90;;;;;;5011116;28;20042;-74
2023/12/17 09:31:49;;;;;;;1065.47;961.83;;;8.60;99.90;;;;;;5015306;28;20296;-74
2023/12/17 09:34:15;;;;;;;1089.17;960.63;;;8.60;99.90;;;;;;5014668;28;20673;-75
2023/12/17 09:36:41;;;;;;;987.63;903.73;;;8.60;99.90;;;;;;4999381;28;20046;-75
2023/12/17 09:39:07;;;;;;;1057.60;945.67;;;8.50;99.90;;;;;;5014819;28;20448;-74
2023/12/17 09:41:33;;;;;;;1004.72;895.30;;;8.60;99.90;;;;;;5031489;28;20041;-75
2023/12/17 09:43:59;;;;;;;1156.67;946.50;;;8.50;99.90;;;;;;5012756;28;20490;-75
2023/12/17 09:46:26;;;;;;;945.30;865.50;;;8.60;99.90;;;;;;4997627;28;20618;-75
2023/12/17 09:48:51;;;;;;;1040.83;938.17;;;8.50;99.90;;;;;;5013457;28;20281;-75
2023/12/17 09:51:20;;;;;;;971.73;885.20;;;8.50;99.90;;;;;;5015454;28;20295;-75
2023/12/17 09:53:46;;;;;;;1018.40;920.10;;;8.50;99.90;;;;;;5011506;28;20037;-74
2023/12/17 09:56:12;;;;;;;991.17;907.37;;;8.50;99.90;;;;;;5011549;28;20042;-75
2023/12/17 09:58:38;;;;;;;1049.63;939.17;;;8.50;99.90;;;;;;5012917;28;20506;-75
2023/12/17 10:01:04;;;;;;;1014.70;920.67;;;8.50;99.90;;;;;;5012316;28;20084;-75
2023/12/17 10:03:30;;;;;;;1024.65;929.03;;;8.50;99.90;;;;;;5010620;28;20451;-74
2023/12/17 10:05:56;;;;;;;947.10;869.60;;;8.50;99.90;;;;;;5031500;28;20046;-75
2023/12/17 10:08:23;;;;;;;1217.73;946.43;;;8.50;99.90;;;;;;4982087;28;20046;-75
2023/12/17 10:10:48;;;;;;;1082.30;940.60;;;8.50;99.90;;;;;;5010108;28;20773;-75
2023/12/17 10:13:19;;;;;;;993.27;900.83;;;8.50;99.90;;;;;;4992450;28;20293;-74
2023/12/17 10:15:49;;;;;;;1206.07;962.17;;;8.50;99.90;;;;;;5010340;28;20057;-76
2023/12/17 10:18:16;;;;;;;961.50;881.93;;;8.50;99.90;;;;;;5007675;28;20746;-75
2023/12/17 10:20:44;;;;;;;965.85;890.40;;;8.50;99.90;;;;;;5010593;28;20288;-76
2023/12/17 10:23:09;;;;;;;1171.47;959.60;;;8.50;99.90;;;;;;5002047;28;20041;-75
2023/12/17 10:25:35;;;;;;;969.70;887.57;;;8.50;99.90;;;;;;5002451;28;20273;-75
2023/12/17 10:28:01;;;;;;;1028.43;924.00;;;8.50;99.90;;;;;;5006467;28;20056;-75
2023/12/17 10:30:29;;;;;;;1025.60;932.57;;;8.50;99.90;;;;;;4987896;28;20149;-75
2023/12/17 10:32:56;;;;;;;1225.87;999.37;;;8.50;99.90;;;;;;5011535;28;20284;-75
2023/12/17 10:35:25;;;;;;;1009.87;928.00;;;8.50;99.90;;;;;;4985555;28;20794;-76
2023/12/17 10:38:02;;;;;;;1505.90;999.90;;;8.50;99.90;;;;;;4998777;28;20284;-75
2023/12/17 10:40:29;;;;;;;963.20;889.45;;;8.50;99.90;;;;;;4996799;28;20280;-76
2023/12/17 10:42:56;;;;;;;1020.30;930.50;;;8.50;99.90;;;;;;5012045;28;20040;-75
2023/12/17 10:45:23;;;;;;;1344.78;975.55;;;8.50;99.90;;;;;;5012843;28;20288;-76
2023/12/17 10:47:56;;;;;;;1024.40;930.00;;;8.50;99.90;;;;;;5009066;28;20124;-75
2023/12/17 10:50:23;;;;;;;1211.38;969.47;;;8.50;99.90;;;;;;5008125;28;20054;-75
2023/12/17 10:52:50;;;;;;;1108.57;985.37;;;8.50;99.90;;;;;;5011592;28;20065;-75
2023/12/17 10:55:17;;;;;;;903.77;837.37;;;8.50;99.90;;;;;;5013215;28;20292;-76
2023/12/17 10:57:52;;;;;;;989.43;892.03;;;8.50;99.90;;;;;;4995666;28;20708;-75
2023/12/17 11:00:22;;;;;;;955.13;876.20;;;8.60;99.90;;;;;;4997190;28;20324;-75
2023/12/17 11:02:51;;;;;;;1065.27;932.67;;;8.60;99.90;;;;;;4992879;28;20038;-75
2023/12/17 11:05:17;;;;;;;1012.03;917.75;;;8.60;99.90;;;;;;5011351;28;20342;-76
2023/12/17 11:07:43;;;;;;;970.93;889.90;;;8.60;99.90;;;;;;4995932;28;20050;-75
2023/12/17 11:10:14;;;;;;;990.30;892.70;;;8.60;99.90;;;;;;5024078;28;20042;-75
2023/12/17 11:12:45;;;;;;;1175.83;934.70;;;8.60;99.90;;;;;;4992395;28;20056;-75
2023/12/17 11:15:12;;;;;;;949.00;879.43;;;8.60;99.90;;;;;;5008006;28;20300;-76
2023/12/17 11:17:38;;;;;;;1218.30;957.97;;;8.60;99.90;;;;;;5011589;28;20281;-76
2023/12/17 11:20:05;;;;;;;876.23;814.13;;;8.60;99.90;;;;;;4992412;28;20356;-75
2023/12/17 11:22:35;;;;;;;919.75;847.90;;;8.70;99.90;;;;;;4992400;28;20280;-76
2023/12/17 11:25:00;;;;;;;1335.10;941.00;;;8.70;99.90;;;;;;4995246;28;20048;-76
2023/12/17 11:27:26;;;;;;;969.47;892.47;;;8.60;99.90;;;;;;5010838;28;20293;-76
2023/12/17 11:29:54;;;;;;;962.20;880.73;;;8.60;99.90;;;;;;5008526;28;20046;-75
2023/12/17 11:32:26;;;;;;;929.03;851.60;;;8.60;99.90;;;;;;5009072;28;20196;-76
2023/12/17 11:34:53;;;;;;;951.17;868.93;;;8.70;99.90;;;;;;5010728;28;20519;-75
2023/12/17 11:37:21;;;;;;;970.92;889.03;;;8.70;99.90;;;;;;4992553;28;20276;-75
2023/12/17 11:39:51;;;;;;;990.87;901.67;;;8.70;99.90;;;;;;5009059;28;20038;-76
2023/12/17 11:42:18;;;;;;;1050.60;950.67;;;8.70;99.90;;;;;;5010638;28;20284;-76
2023/12/17 11:44:45;;;;;;;1386.60;999.90;;;8.80;99.90;;;;;;4990208;28;20288;-76
2023/12/17 11:47:12;;;;;;;1442.57;982.70;;;8.80;99.90;;;;;;5012731;28;20665;-75
2023/12/17 11:49:38;;;;;;;901.40;835.77;;;8.80;99.90;;;;;;5010724;28;20277;-75
2023/12/17 11:52:14;;;;;;;951.00;859.30;;;8.80;99.90;;;;;;5010632;28;20283;-75
2023/12/17 11:54:43;;;;;;;873.20;813.37;;;8.70;99.90;;;;;;4993309;28;20112;-75
2023/12/17 11:57:18;;;;;;;891.03;829.20;;;8.70;99.90;;;;;;4994000;28;20331;-74
2023/12/17 11:59:44;;;;;;;981.97;891.25;;;8.70;99.90;;;;;;5004324;28;20273;-75
2023/12/17 12:02:10;;;;;;;950.50;876.67;;;8.70;99.90;;;;;;5009946;28;20034;-75
2023/12/17 12:04:42;;;;;;;976.90;901.33;;;8.70;99.90;;;;;;5011213;28;20041;-75
2023/12/17 12:07:09;;;;;;;968.13;882.83;;;8.70;99.90;;;;;;5006929;28;20037;-76